sensor_id;sensor_type;location;lat;lon;timestamp;pressure;altitude;pressure_sealevel;temperature;humidity
6433;BME280;3249;42.690;23.260;2022-09-17T00:01:01;93624.66;;;16.88;100.00
6433;BME280;3249;42.690;23.260;2022-09-17T00:03:27;93617.78;;;17.02;100.00
6433;BME280;3249;42.690;23.260;2022-09-17T00:08:25;93622.53;;;16.90;100.00
6433;BME280;3249;42.690;23.260;2022-09-17T00:10:51;93612.00;;;16.72;100.00
6433;BME280;3249;42.690;23.260;2022-09-17T00:13:17;93600.94;;;16.95;100.00
6433;BME280;3249;42.690;23.260;2022-09-17T00:15:45;93604.50;;;17.04;100.00
6433;BME280;3249;42.690;23.260;2022-09-17T00:18:11;93590.72;;;16.70;100.00
6433;BME280;3249;42.690;23.260;2022-09-17T00:20:43;93583.41;;;16.77;100.00
6433;BME280;3249;42.690;23.260;2022-09-17T00:23:10;93576.59;;;16.86;100.00
6433;BME280;3249;42.690;23.260;2022-09-17T00:25:39;93591.25;;;17.05;100.00
6433;BME280;3249;42.690;23.260;2022-09-17T00:28:06;93572.44;;;16.85;100.00
6433;BME280;3249;42.690;23.260;2022-09-17T00:30:31;93583.56;;;16.90;100.00
6433;BME280;3249;42.690;23.260;2022-09-17T00:32:57;93587.38;;;17.03;100.00
6433;BME280;3249;42.690;23.260;2022-09-17T00:35:26;93570.94;;;16.74;100.00
6433;BME280;3249;42.690;23.260;2022-09-17T00:37:52;93602.31;;;16.82;100.00
6433;BME280;3249;42.690;23.260;2022-09-17T00:40:19;93598.88;;;16.97;100.00
6433;BME280;3249;42.690;23.260;2022-09-17T00:42:45;93579.09;;;16.57;100.00
6433;BME280;3249;42.690;23.260;2022-09-17T00:45:11;93603.53;;;16.56;100.00
6433;BME280;3249;42.690;23.260;2022-09-17T00:47:41;93614.81;;;16.80;100.00
6433;BME280;3249;42.690;23.260;2022-09-17T00:50:17;93622.28;;;16.92;100.00
6433;BME280;3249;42.690;23.260;2022-09-17T00:52:50;93627.16;;;16.98;100.00
6433;BME280;3249;42.690;23.260;2022-09-17T00:55:30;93627.97;;;16.55;100.00
6433;BME280;3249;42.690;23.260;2022-09-17T00:57:58;93611.00;;;16.68;100.00
6433;BME280;3249;42.690;23.260;2022-09-17T01:00:25;93627.78;;;16.85;100.00
6433;BME280;3249;42.690;23.260;2022-09-17T01:02:52;93617.16;;;16.82;100.00
6433;BME280;3249;42.690;23.260;2022-09-17T01:05:20;93622.06;;;16.88;100.00
6433;BME280;3249;42.690;23.260;2022-09-17T01:08:06;93605.59;;;16.98;100.00
6433;BME280;3249;42.690;23.260;2022-09-17T01:22:12;93601.91;;;16.65;100.00
6433;BME280;3249;42.690;23.260;2022-09-17T01:36:17;93558.19;;;16.77;100.00
6433;BME280;3249;42.690;23.260;2022-09-17T01:38:40;93566.34;;;16.99;100.00
6433;BME280;3249;42.690;23.260;2022-09-17T01:43:45;93547.66;;;16.92;100.00
6433;BME280;3249;42.690;23.260;2022-09-17T01:46:22;93537.00;;;16.60;100.00
6433;BME280;3249;42.690;23.260;2022-09-17T01:48:51;93572.88;;;16.53;100.00
6433;BME280;3249;42.690;23.260;2022-09-17T01:51:26;93608.38;;;16.14;100.00
6433;BME280;3249;42.690;23.260;2022-09-17T01:54:03;93593.19;;;15.83;100.00
6433;BME280;3249;42.690;23.260;2022-09-17T01:56:34;93588.19;;;16.01;100.00
6433;BME280;3249;42.690;23.260;2022-09-17T01:59:25;93586.78;;;16.24;100.00
6433;BME280;3249;42.690;23.260;2022-09-17T02:02:12;93587.78;;;16.33;100.00
6433;BME280;3249;42.690;23.260;2022-09-17T02:04:45;93540.06;;;16.19;100.00
6433;BME280;3249;42.690;23.260;2022-09-17T02:07:18;93542.34;;;16.30;100.00
6433;BME280;3249;42.690;23.260;2022-09-17T02:10:09;93515.56;;;16.35;100.00
6433;BME280;3249;42.690;23.260;2022-09-17T02:13:01;93490.59;;;16.44;100.00
6433;BME280;3249;42.690;23.260;2022-09-17T02:15:33;93455.50;;;16.46;100.00
6433;BME280;3249;42.690;23.260;2022-09-17T02:20:53;93451.88;;;16.42;100.00
6433;BME280;3249;42.690;23.260;2022-09-17T02:23:29;93447.75;;;16.36;100.00
6433;BME280;3249;42.690;23.260;2022-09-17T02:26:10;93457.91;;;16.33;100.00
6433;BME280;3249;42.690;23.260;2022-09-17T02:28:39;93462.84;;;16.34;100.00
6433;BME280;3249;42.690;23.260;2022-09-17T02:31:06;93469.22;;;16.13;100.00
6433;BME280;3249;42.690;23.260;2022-09-17T02:33:33;93484.31;;;16.11;100.00
6433;BME280;3249;42.690;23.260;2022-09-17T02:36:00;93483.34;;;15.92;100.00
6433;BME280;3249;42.690;23.260;2022-09-17T02:38:29;93510.91;;;15.78;100.00
6433;BME280;3249;42.690;23.260;2022-09-17T02:41:16;93457.00;;;15.70;100.00
6433;BME280;3249;42.690;23.260;2022-09-17T02:44:04;93446.88;;;15.74;100.00
6433;BME280;3249;42.690;23.260;2022-09-17T02:52:16;93447.97;;;16.06;100.00
6433;BME280;3249;42.690;23.260;2022-09-17T02:55:30;93465.25;;;16.26;100.00
6433;BME280;3249;42.690;23.260;2022-09-17T03:00:34;93436.69;;;16.26;100.00
6433;BME280;3249;42.690;23.260;2022-09-17T03:03:18;93417.75;;;16.20;100.00
6433;BME280;3249;42.690;23.260;2022-09-17T03:05:46;93434.81;;;16.31;100.00
6433;BME280;3249;42.690;23.260;2022-09-17T03:08:13;93427.41;;;16.15;100.00
6433;BME280;3249;42.690;23.260;2022-09-17T03:10:39;93461.06;;;16.25;100.00
6433;BME280;3249;42.690;23.260;2022-09-17T03:13:05;93464.72;;;16.24;100.00
6433;BME280;3249;42.690;23.260;2022-09-17T03:15:31;93457.09;;;16.42;100.00
6433;BME280;3249;42.690;23.260;2022-09-17T03:17:56;93442.38;;;16.28;100.00
6433;BME280;3249;42.690;23.260;2022-09-17T03:20:22;93408.75;;;16.08;100.00
6433;BME280;3249;42.690;23.260;2022-09-17T03:22:48;93416.31;;;15.99;100.00
6433;BME280;3249;42.690;23.260;2022-09-17T03:25:13;93379.97;;;15.99;100.00
6433;BME280;3249;42.690;23.260;2022-09-17T03:27:38;93409.34;;;16.33;100.00
6433;BME280;3249;42.690;23.260;2022-09-17T03:30:04;93425.19;;;16.32;100.00
6433;BME280;3249;42.690;23.260;2022-09-17T03:32:31;93431.66;;;16.39;100.00
6433;BME280;3249;42.690;23.260;2022-09-17T03:34:56;93425.38;;;16.45;100.00
6433;BME280;3249;42.690;23.260;2022-09-17T03:37:22;93426.97;;;16.41;100.00
6433;BME280;3249;42.690;23.260;2022-09-17T03:39:47;93387.09;;;16.22;100.00
6433;BME280;3249;42.690;23.260;2022-09-17T03:42:13;93397.69;;;16.31;100.00
6433;BME280;3249;42.690;23.260;2022-09-17T03:44:38;93390.84;;;16.40;100.00
6433;BME280;3249;42.690;23.260;2022-09-17T03:47:04;93393.28;;;16.31;100.00
6433;BME280;3249;42.690;23.260;2022-09-17T03:49:29;93385.22;;;16.28;100.00
6433;BME280;3249;42.690;23.260;2022-09-17T03:51:54;93372.56;;;16.21;100.00
6433;BME280;3249;42.690;23.260;2022-09-17T03:54:20;93409.56;;;16.42;100.00
6433;BME280;3249;42.690;23.260;2022-09-17T03:56:45;93414.19;;;16.45;100.00
6433;BME280;3249;42.690;23.260;2022-09-17T03:59:11;93409.28;;;16.38;100.00
6433;BME280;3249;42.690;23.260;2022-09-17T04:01:36;93430.66;;;16.64;100.00
6433;BME280;3249;42.690;23.260;2022-09-17T04:04:02;93434.13;;;16.54;100.00
6433;BME280;3249;42.690;23.260;2022-09-17T04:06:28;93418.94;;;16.66;100.00
6433;BME280;3249;42.690;23.260;2022-09-17T04:08:54;93447.66;;;16.85;100.00
6433;BME280;3249;42.690;23.260;2022-09-17T04:11:20;93433.53;;;16.67;100.00
6433;BME280;3249;42.690;23.260;2022-09-17T04:13:45;93436.00;;;16.77;100.00
6433;BME280;3249;42.690;23.260;2022-09-17T04:16:11;93480.34;;;16.91;100.00
6433;BME280;3249;42.690;23.260;2022-09-17T04:18:37;93474.09;;;16.58;100.00
6433;BME280;3249;42.690;23.260;2022-09-17T04:21:02;93481.97;;;16.05;100.00
6433;BME280;3249;42.690;23.260;2022-09-17T04:23:28;93495.97;;;16.14;100.00
6433;BME280;3249;42.690;23.260;2022-09-17T04:25:53;93504.72;;;16.23;100.00
6433;BME280;3249;42.690;23.260;2022-09-17T04:28:19;93509.31;;;16.36;100.00
6433;BME280;3249;42.690;23.260;2022-09-17T04:30:46;93517.88;;;16.41;100.00
6433;BME280;3249;42.690;23.260;2022-09-17T04:33:12;93520.13;;;16.53;100.00
6433;BME280;3249;42.690;23.260;2022-09-17T04:35:37;93536.47;;;16.63;100.00
6433;BME280;3249;42.690;23.260;2022-09-17T04:38:03;93562.06;;;16.80;100.00
6433;BME280;3249;42.690;23.260;2022-09-17T04:40:28;93561.69;;;16.96;100.00
6433;BME280;3249;42.690;23.260;2022-09-17T04:42:55;93554.72;;;16.87;100.00
6433;BME280;3249;42.690;23.260;2022-09-17T04:45:21;93550.28;;;16.92;100.00
6433;BME280;3249;42.690;23.260;2022-09-17T04:47:47;93559.41;;;17.18;100.00
6433;BME280;3249;42.690;23.260;2022-09-17T04:50:18;93579.59;;;17.31;100.00
6433;BME280;3249;42.690;23.260;2022-09-17T04:52:44;93593.81;;;17.39;100.00
6433;BME280;3249;42.690;23.260;2022-09-17T04:55:10;93593.00;;;17.48;100.00
6433;BME280;3249;42.690;23.260;2022-09-17T04:57:36;93612.13;;;17.62;100.00
6433;BME280;3249;42.690;23.260;2022-09-17T05:00:02;93624.75;;;17.74;100.00
6433;BME280;3249;42.690;23.260;2022-09-17T05:02:27;93616.56;;;17.85;100.00
6433;BME280;3249;42.690;23.260;2022-09-17T05:04:53;93600.22;;;18.03;100.00
6433;BME280;3249;42.690;23.260;2022-09-17T05:07:21;93582.78;;;18.04;100.00
6433;BME280;3249;42.690;23.260;2022-09-17T05:09:46;93594.34;;;18.17;100.00
6433;BME280;3249;42.690;23.260;2022-09-17T05:12:12;93581.31;;;18.17;100.00
6433;BME280;3249;42.690;23.260;2022-09-17T05:14:37;93591.38;;;18.23;100.00
6433;BME280;3249;42.690;23.260;2022-09-17T05:17:03;93584.38;;;18.24;100.00
6433;BME280;3249;42.690;23.260;2022-09-17T05:19:28;93574.41;;;18.26;100.00
6433;BME280;3249;42.690;23.260;2022-09-17T05:21:53;93569.22;;;18.26;100.00
6433;BME280;3249;42.690;23.260;2022-09-17T05:24:19;93546.19;;;18.33;100.00
6433;BME280;3249;42.690;23.260;2022-09-17T05:26:44;93518.94;;;18.25;100.00
6433;BME280;3249;42.690;23.260;2022-09-17T05:29:10;93521.19;;;18.32;100.00
6433;BME280;3249;42.690;23.260;2022-09-17T05:31:35;93549.53;;;18.57;100.00
6433;BME280;3249;42.690;23.260;2022-09-17T05:34:00;93552.66;;;18.59;100.00
6433;BME280;3249;42.690;23.260;2022-09-17T05:36:26;93559.41;;;18.60;100.00
6433;BME280;3249;42.690;23.260;2022-09-17T05:38:51;93575.56;;;18.62;100.00
6433;BME280;3249;42.690;23.260;2022-09-17T05:41:17;93568.22;;;18.64;100.00
6433;BME280;3249;42.690;23.260;2022-09-17T05:43:42;93578.28;;;18.70;100.00
6433;BME280;3249;42.690;23.260;2022-09-17T05:46:08;93581.31;;;18.77;100.00
6433;BME280;3249;42.690;23.260;2022-09-17T05:48:35;93582.59;;;18.80;100.00
6433;BME280;3249;42.690;23.260;2022-09-17T05:51:00;93557.16;;;18.72;100.00
6433;BME280;3249;42.690;23.260;2022-09-17T05:53:26;93576.53;;;18.84;100.00
6433;BME280;3249;42.690;23.260;2022-09-17T05:55:57;93579.25;;;18.93;100.00
6433;BME280;3249;42.690;23.260;2022-09-17T05:58:23;93578.41;;;18.97;100.00
6433;BME280;3249;42.690;23.260;2022-09-17T06:00:49;93570.88;;;18.96;100.00
6433;BME280;3249;42.690;23.260;2022-09-17T06:03:17;93556.47;;;18.98;100.00
6433;BME280;3249;42.690;23.260;2022-09-17T06:05:54;93553.69;;;18.95;100.00
6433;BME280;3249;42.690;23.260;2022-09-17T06:08:20;93560.63;;;18.99;100.00
6433;BME280;3249;42.690;23.260;2022-09-17T06:10:46;93591.53;;;19.11;100.00
6433;BME280;3249;42.690;23.260;2022-09-17T06:13:11;93608.28;;;19.05;100.00
6433;BME280;3249;42.690;23.260;2022-09-17T06:15:36;93615.84;;;18.69;100.00
6433;BME280;3249;42.690;23.260;2022-09-17T06:18:02;93630.44;;;18.52;100.00
6433;BME280;3249;42.690;23.260;2022-09-17T06:20:27;93644.16;;;18.39;100.00
6433;BME280;3249;42.690;23.260;2022-09-17T06:22:56;93627.66;;;18.20;100.00
6433;BME280;3249;42.690;23.260;2022-09-17T06:25:22;93653.47;;;17.92;100.00
6433;BME280;3249;42.690;23.260;2022-09-17T06:27:48;93662.41;;;18.10;100.00
6433;BME280;3249;42.690;23.260;2022-09-17T06:30:14;93663.69;;;18.13;100.00
6433;BME280;3249;42.690;23.260;2022-09-17T06:32:39;93669.63;;;18.18;100.00
6433;BME280;3249;42.690;23.260;2022-09-17T06:35:05;93652.19;;;18.13;100.00
6433;BME280;3249;42.690;23.260;2022-09-17T06:37:32;93671.88;;;18.25;100.00
6433;BME280;3249;42.690;23.260;2022-09-17T06:39:58;93664.06;;;18.01;100.00
6433;BME280;3249;42.690;23.260;2022-09-17T06:42:27;93652.38;;;17.98;100.00
6433;BME280;3249;42.690;23.260;2022-09-17T06:44:53;93625.44;;;17.84;100.00
6433;BME280;3249;42.690;23.260;2022-09-17T06:47:18;93636.44;;;18.05;100.00
6433;BME280;3249;42.690;23.260;2022-09-17T06:49:44;93612.75;;;17.78;100.00
6433;BME280;3249;42.690;23.260;2022-09-17T06:52:10;93620.13;;;18.18;100.00
6433;BME280;3249;42.690;23.260;2022-09-17T06:54:35;93606.69;;;18.30;100.00
6433;BME280;3249;42.690;23.260;2022-09-17T06:57:01;93593.66;;;18.35;100.00
6433;BME280;3249;42.690;23.260;2022-09-17T06:59:26;93610.06;;;18.54;100.00
6433;BME280;3249;42.690;23.260;2022-09-17T07:01:52;93581.56;;;18.20;100.00
6433;BME280;3249;42.690;23.260;2022-09-17T07:04:18;93580.75;;;18.20;100.00
6433;BME280;3249;42.690;23.260;2022-09-17T07:06:43;93569.13;;;18.54;100.00
6433;BME280;3249;42.690;23.260;2022-09-17T07:09:09;93557.88;;;18.59;100.00
6433;BME280;3249;42.690;23.260;2022-09-17T07:11:36;93563.22;;;18.86;100.00
6433;BME280;3249;42.690;23.260;2022-09-17T07:14:01;93564.50;;;19.20;100.00
6433;BME280;3249;42.690;23.260;2022-09-17T07:16:28;93540.31;;;19.15;100.00
6433;BME280;3249;42.690;23.260;2022-09-17T07:18:57;93546.28;;;19.34;100.00
6433;BME280;3249;42.690;23.260;2022-09-17T07:21:22;93528.94;;;19.70;100.00
6433;BME280;3249;42.690;23.260;2022-09-17T07:23:50;93504.25;;;19.62;100.00
6433;BME280;3249;42.690;23.260;2022-09-17T07:26:16;93542.56;;;19.94;100.00
6433;BME280;3249;42.690;23.260;2022-09-17T07:28:42;93573.13;;;20.07;100.00
6433;BME280;3249;42.690;23.260;2022-09-17T07:31:09;93566.19;;;19.75;100.00
6433;BME280;3249;42.690;23.260;2022-09-17T07:33:35;93565.13;;;20.03;100.00
6433;BME280;3249;42.690;23.260;2022-09-17T07:36:04;93551.84;;;19.86;100.00
6433;BME280;3249;42.690;23.260;2022-09-17T07:38:30;93533.84;;;19.85;100.00
6433;BME280;3249;42.690;23.260;2022-09-17T07:41:01;93551.09;;;19.99;100.00
6433;BME280;3249;42.690;23.260;2022-09-17T07:43:29;93546.06;;;20.16;100.00
6433;BME280;3249;42.690;23.260;2022-09-17T07:45:56;93529.03;;;20.19;100.00
6433;BME280;3249;42.690;23.260;2022-09-17T07:48:21;93554.31;;;20.59;100.00
6433;BME280;3249;42.690;23.260;2022-09-17T07:50:47;93535.19;;;20.36;100.00
6433;BME280;3249;42.690;23.260;2022-09-17T07:53:13;93557.66;;;20.24;100.00
6433;BME280;3249;42.690;23.260;2022-09-17T07:55:39;93554.09;;;20.69;100.00
6433;BME280;3249;42.690;23.260;2022-09-17T07:58:04;93545.31;;;20.87;100.00
6433;BME280;3249;42.690;23.260;2022-09-17T08:00:30;93544.63;;;20.81;100.00
6433;BME280;3249;42.690;23.260;2022-09-17T08:02:56;93546.84;;;20.88;100.00
6433;BME280;3249;42.690;23.260;2022-09-17T08:05:22;93549.50;;;21.10;100.00
6433;BME280;3249;42.690;23.260;2022-09-17T08:07:53;93550.38;;;21.05;100.00
6433;BME280;3249;42.690;23.260;2022-09-17T08:10:20;93532.06;;;21.27;100.00
6433;BME280;3249;42.690;23.260;2022-09-17T08:12:49;93541.13;;;21.52;100.00
6433;BME280;3249;42.690;23.260;2022-09-17T08:15:16;93535.75;;;21.57;100.00
6433;BME280;3249;42.690;23.260;2022-09-17T08:17:45;93539.06;;;21.71;100.00
6433;BME280;3249;42.690;23.260;2022-09-17T08:20:12;93545.09;;;21.71;100.00
6433;BME280;3249;42.690;23.260;2022-09-17T08:22:37;93534.47;;;21.46;100.00
6433;BME280;3249;42.690;23.260;2022-09-17T08:25:04;93551.88;;;21.72;100.00
6433;BME280;3249;42.690;23.260;2022-09-17T08:27:30;93527.00;;;21.92;100.00
6433;BME280;3249;42.690;23.260;2022-09-17T08:29:56;93532.88;;;22.06;100.00
6433;BME280;3249;42.690;23.260;2022-09-17T08:32:22;93550.03;;;21.73;100.00
6433;BME280;3249;42.690;23.260;2022-09-17T08:34:47;93548.97;;;21.74;100.00
6433;BME280;3249;42.690;23.260;2022-09-17T08:37:13;93553.00;;;22.28;100.00
6433;BME280;3249;42.690;23.260;2022-09-17T08:39:38;93528.00;;;22.22;100.00
6433;BME280;3249;42.690;23.260;2022-09-17T08:42:10;93551.22;;;22.54;100.00
6433;BME280;3249;42.690;23.260;2022-09-17T08:44:42;93541.72;;;22.19;100.00
6433;BME280;3249;42.690;23.260;2022-09-17T08:47:17;93525.69;;;22.20;100.00
6433;BME280;3249;42.690;23.260;2022-09-17T08:49:52;93540.78;;;22.23;100.00
6433;BME280;3249;42.690;23.260;2022-09-17T09:04:03;93543.06;;;22.55;100.00
6433;BME280;3249;42.690;23.260;2022-09-17T09:06:36;93529.94;;;21.99;100.00
6433;BME280;3249;42.690;23.260;2022-09-17T09:09:05;93543.59;;;22.35;100.00
6433;BME280;3249;42.690;23.260;2022-09-17T09:11:35;93540.25;;;22.43;100.00
6433;BME280;3249;42.690;23.260;2022-09-17T09:14:06;93555.94;;;22.35;100.00
6433;BME280;3249;42.690;23.260;2022-09-17T09:16:39;93543.56;;;22.18;100.00
6433;BME280;3249;42.690;23.260;2022-09-17T09:19:31;93555.72;;;22.14;100.00
6433;BME280;3249;42.690;23.260;2022-09-17T09:22:03;93557.44;;;22.19;100.00
6433;BME280;3249;42.690;23.260;2022-09-17T09:27:27;93578.06;;;22.03;100.00
6433;BME280;3249;42.690;23.260;2022-09-17T09:30:00;93586.47;;;21.30;100.00
6433;BME280;3249;42.690;23.260;2022-09-17T09:35:18;93600.31;;;21.31;100.00
6433;BME280;3249;42.690;23.260;2022-09-17T09:38:09;93608.91;;;21.53;100.00
6433;BME280;3249;42.690;23.260;2022-09-17T09:40:43;93610.47;;;21.54;100.00
6433;BME280;3249;42.690;23.260;2022-09-17T09:43:21;93602.03;;;21.35;100.00
6433;BME280;3249;42.690;23.260;2022-09-17T09:54:11;93639.91;;;20.94;100.00
6433;BME280;3249;42.690;23.260;2022-09-17T09:59:12;93590.66;;;19.93;100.00
6433;BME280;3249;42.690;23.260;2022-09-17T10:01:40;93569.81;;;19.61;100.00
6433;BME280;3249;42.690;23.260;2022-09-17T10:04:16;93556.09;;;19.82;100.00
6433;BME280;3249;42.690;23.260;2022-09-17T10:06:42;93522.19;;;19.23;100.00
6433;BME280;3249;42.690;23.260;2022-09-17T10:09:09;93499.41;;;19.10;100.00
6433;BME280;3249;42.690;23.260;2022-09-17T10:11:35;93461.75;;;18.71;100.00
6433;BME280;3249;42.690;23.260;2022-09-17T10:14:21;93474.69;;;18.76;100.00
6433;BME280;3249;42.690;23.260;2022-09-17T10:16:48;93455.81;;;18.97;100.00
6433;BME280;3249;42.690;23.260;2022-09-17T10:19:20;93447.53;;;19.09;100.00
6433;BME280;3249;42.690;23.260;2022-09-17T10:21:50;93440.78;;;19.21;100.00
6433;BME280;3249;42.690;23.260;2022-09-17T10:24:28;93435.38;;;19.18;100.00
6433;BME280;3249;42.690;23.260;2022-09-17T10:27:11;93463.75;;;19.19;100.00
6433;BME280;3249;42.690;23.260;2022-09-17T10:29:45;93457.56;;;19.15;100.00
6433;BME280;3249;42.690;23.260;2022-09-17T10:32:15;93438.03;;;18.99;100.00
6433;BME280;3249;42.690;23.260;2022-09-17T10:34:59;93479.81;;;19.13;100.00
6433;BME280;3249;42.690;23.260;2022-09-17T10:40:00;93447.81;;;18.94;100.00
6433;BME280;3249;42.690;23.260;2022-09-17T10:42:25;93437.78;;;18.69;100.00
6433;BME280;3249;42.690;23.260;2022-09-17T10:44:53;93455.00;;;18.70;100.00
6433;BME280;3249;42.690;23.260;2022-09-17T10:47:34;93434.53;;;18.45;100.00
6433;BME280;3249;42.690;23.260;2022-09-17T10:52:37;93420.66;;;17.93;100.00
6433;BME280;3249;42.690;23.260;2022-09-17T11:00:17;93467.59;;;18.63;100.00
6433;BME280;3249;42.690;23.260;2022-09-17T11:11:41;93464.13;;;18.99;100.00
6433;BME280;3249;42.690;23.260;2022-09-17T11:35:26;93454.41;;;20.13;100.00
6433;BME280;3249;42.690;23.260;2022-09-17T11:38:13;93458.00;;;20.03;100.00
6433;BME280;3249;42.690;23.260;2022-09-17T11:40:51;93443.97;;;20.13;100.00
6433;BME280;3249;42.690;23.260;2022-09-17T11:43:27;93460.19;;;20.45;100.00
6433;BME280;3249;42.690;23.260;2022-09-17T11:48:42;93439.88;;;20.64;100.00
6433;BME280;3249;42.690;23.260;2022-09-17T11:56:40;93422.09;;;20.75;100.00
6433;BME280;3249;42.690;23.260;2022-09-17T12:02:01;93417.84;;;20.35;100.00
6433;BME280;3249;42.690;23.260;2022-09-17T12:05:05;93427.22;;;20.36;100.00
6433;BME280;3249;42.690;23.260;2022-09-17T12:10:33;93424.19;;;20.07;100.00
6433;BME280;3249;42.690;23.260;2022-09-17T12:13:17;93424.31;;;20.02;100.00
6433;BME280;3249;42.690;23.260;2022-09-17T12:15:48;93418.59;;;20.00;100.00
6433;BME280;3249;42.690;23.260;2022-09-17T12:21:02;93425.47;;;20.09;100.00
6433;BME280;3249;42.690;23.260;2022-09-17T12:23:43;93414.03;;;20.05;100.00
6433;BME280;3249;42.690;23.260;2022-09-17T12:32:22;93412.72;;;19.81;100.00
6433;BME280;3249;42.690;23.260;2022-09-17T12:34:57;93407.63;;;19.76;100.00
6433;BME280;3249;42.690;23.260;2022-09-17T12:42:49;93398.16;;;19.66;100.00
6433;BME280;3249;42.690;23.260;2022-09-17T12:54:38;93379.94;;;19.26;100.00
6433;BME280;3249;42.690;23.260;2022-09-17T12:57:12;93381.56;;;19.22;100.00
6433;BME280;3249;42.690;23.260;2022-09-17T12:59:49;93363.56;;;19.20;100.00
6433;BME280;3249;42.690;23.260;2022-09-17T13:02:24;93353.81;;;18.99;100.00
6433;BME280;3249;42.690;23.260;2022-09-17T13:16:11;93352.44;;;19.01;100.00
